sensor_id;sensor_type;location;lat;lon;timestamp;temperature;humidity
47791;DHT22;33547;49.044;1.156;2022-08-19T00:00:38;22.30;59.40
47791;DHT22;33547;49.044;1.156;2022-08-19T00:03:04;22.30;59.50
47791;DHT22;33547;49.044;1.156;2022-08-19T00:05:32;22.30;59.50
47791;DHT22;33547;49.044;1.156;2022-08-19T00:07:58;22.30;59.50
47791;DHT22;33547;49.044;1.156;2022-08-19T00:10:23;22.30;59.50
47791;DHT22;33547;49.044;1.156;2022-08-19T00:12:50;22.30;59.40
47791;DHT22;33547;49.044;1.156;2022-08-19T00:15:19;22.20;59.40
47791;DHT22;33547;49.044;1.156;2022-08-19T00:17:46;22.20;59.50
47791;DHT22;33547;49.044;1.156;2022-08-19T00:20:15;22.20;59.50
47791;DHT22;33547;49.044;1.156;2022-08-19T00:22:45;22.20;59.60
47791;DHT22;33547;49.044;1.156;2022-08-19T00:25:13;22.20;59.50
47791;DHT22;33547;49.044;1.156;2022-08-19T00:27:39;22.20;59.50
47791;DHT22;33547;49.044;1.156;2022-08-19T00:30:06;22.10;59.50
47791;DHT22;33547;49.044;1.156;2022-08-19T00:32:33;22.10;59.50
47791;DHT22;33547;49.044;1.156;2022-08-19T00:35:00;22.10;59.50
47791;DHT22;33547;49.044;1.156;2022-08-19T00:37:26;22.10;59.60
47791;DHT22;33547;49.044;1.156;2022-08-19T00:39:53;22.10;59.70
47791;DHT22;33547;49.044;1.156;2022-08-19T00:42:20;22.00;59.60
47791;DHT22;33547;49.044;1.156;2022-08-19T00:44:47;22.00;59.60
47791;DHT22;33547;49.044;1.156;2022-08-19T00:47:13;22.00;59.70
47791;DHT22;33547;49.044;1.156;2022-08-19T00:49:47;22.00;59.70
47791;DHT22;33547;49.044;1.156;2022-08-19T00:52:28;22.00;59.60
47791;DHT22;33547;49.044;1.156;2022-08-19T00:55:00;22.00;59.70
47791;DHT22;33547;49.044;1.156;2022-08-19T00:57:30;22.00;59.70
47791;DHT22;33547;49.044;1.156;2022-08-19T01:00:00;21.90;59.60
47791;DHT22;33547;49.044;1.156;2022-08-19T01:02:27;22.00;59.70
47791;DHT22;33547;49.044;1.156;2022-08-19T01:04:54;21.90;59.60
47791;DHT22;33547;49.044;1.156;2022-08-19T01:07:20;22.00;59.60
47791;DHT22;33547;49.044;1.156;2022-08-19T01:09:46;21.90;59.60
47791;DHT22;33547;49.044;1.156;2022-08-19T01:12:13;21.90;59.60
47791;DHT22;33547;49.044;1.156;2022-08-19T01:14:40;21.90;59.70
47791;DHT22;33547;49.044;1.156;2022-08-19T01:17:08;21.90;59.70
47791;DHT22;33547;49.044;1.156;2022-08-19T01:19:38;21.90;59.70
47791;DHT22;33547;49.044;1.156;2022-08-19T01:24:49;21.80;59.70
47791;DHT22;33547;49.044;1.156;2022-08-19T01:27:16;21.90;59.70
47791;DHT22;33547;49.044;1.156;2022-08-19T01:29:43;21.80;59.50
47791;DHT22;33547;49.044;1.156;2022-08-19T01:32:13;21.80;59.60
47791;DHT22;33547;49.044;1.156;2022-08-19T01:34:41;21.80;59.60
47791;DHT22;33547;49.044;1.156;2022-08-19T01:37:12;21.80;60.20
47791;DHT22;33547;49.044;1.156;2022-08-19T01:39:41;21.80;59.60
47791;DHT22;33547;49.044;1.156;2022-08-19T01:42:08;21.90;59.60
47791;DHT22;33547;49.044;1.156;2022-08-19T01:44:37;21.80;59.50
47791;DHT22;33547;49.044;1.156;2022-08-19T01:47:04;21.90;59.50
47791;DHT22;33547;49.044;1.156;2022-08-19T01:49:31;21.90;59.40
47791;DHT22;33547;49.044;1.156;2022-08-19T01:51:59;21.90;59.40
47791;DHT22;33547;49.044;1.156;2022-08-19T01:54:25;21.90;59.40
47791;DHT22;33547;49.044;1.156;2022-08-19T01:56:55;21.90;59.40
47791;DHT22;33547;49.044;1.156;2022-08-19T01:59:25;21.90;59.40
47791;DHT22;33547;49.044;1.156;2022-08-19T02:01:51;21.90;59.40
47791;DHT22;33547;49.044;1.156;2022-08-19T02:04:16;21.90;59.30
47791;DHT22;33547;49.044;1.156;2022-08-19T02:06:42;21.90;59.30
47791;DHT22;33547;49.044;1.156;2022-08-19T02:09:08;21.90;59.30
47791;DHT22;33547;49.044;1.156;2022-08-19T02:11:36;21.90;59.20
47791;DHT22;33547;49.044;1.156;2022-08-19T02:14:05;21.90;59.20
47791;DHT22;33547;49.044;1.156;2022-08-19T02:16:33;21.90;59.10
47791;DHT22;33547;49.044;1.156;2022-08-19T02:18:59;22.00;59.20
47791;DHT22;33547;49.044;1.156;2022-08-19T02:21:29;22.00;59.10
47791;DHT22;33547;49.044;1.156;2022-08-19T02:23:55;22.00;59.10
47791;DHT22;33547;49.044;1.156;2022-08-19T02:26:22;22.00;59.10
47791;DHT22;33547;49.044;1.156;2022-08-19T02:28:47;22.00;59.10
47791;DHT22;33547;49.044;1.156;2022-08-19T02:31:19;22.00;59.10
47791;DHT22;33547;49.044;1.156;2022-08-19T02:33:47;22.00;59.00
47791;DHT22;33547;49.044;1.156;2022-08-19T02:36:15;22.00;59.00
47791;DHT22;33547;49.044;1.156;2022-08-19T02:38:42;22.00;59.00
47791;DHT22;33547;49.044;1.156;2022-08-19T02:41:30;22.00;59.60
47791;DHT22;33547;49.044;1.156;2022-08-19T02:43:59;22.00;59.00
47791;DHT22;33547;49.044;1.156;2022-08-19T02:46:29;22.00;58.90
47791;DHT22;33547;49.044;1.156;2022-08-19T02:49:04;22.00;58.80
47791;DHT22;33547;49.044;1.156;2022-08-19T02:51:38;22.10;58.80
47791;DHT22;33547;49.044;1.156;2022-08-19T02:54:08;22.10;58.80
47791;DHT22;33547;49.044;1.156;2022-08-19T02:56:36;22.00;58.70
47791;DHT22;33547;49.044;1.156;2022-08-19T02:59:04;22.00;58.70
47791;DHT22;33547;49.044;1.156;2022-08-19T03:01:37;22.10;58.70
47791;DHT22;33547;49.044;1.156;2022-08-19T03:04:07;22.10;58.70
47791;DHT22;33547;49.044;1.156;2022-08-19T03:06:37;22.00;58.60
47791;DHT22;33547;49.044;1.156;2022-08-19T03:09:04;22.10;58.60
47791;DHT22;33547;49.044;1.156;2022-08-19T03:11:31;22.10;58.60
47791;DHT22;33547;49.044;1.156;2022-08-19T03:13:58;22.10;58.60
47791;DHT22;33547;49.044;1.156;2022-08-19T03:16:27;22.10;58.50
47791;DHT22;33547;49.044;1.156;2022-08-19T03:18:56;22.10;58.50
47791;DHT22;33547;49.044;1.156;2022-08-19T03:21:27;22.10;58.50
47791;DHT22;33547;49.044;1.156;2022-08-19T03:23:59;22.10;58.60
47791;DHT22;33547;49.044;1.156;2022-08-19T03:26:27;22.10;58.50
47791;DHT22;33547;49.044;1.156;2022-08-19T03:28:54;22.10;58.50
47791;DHT22;33547;49.044;1.156;2022-08-19T03:31:22;22.10;58.50
47791;DHT22;33547;49.044;1.156;2022-08-19T03:33:49;22.10;58.40
47791;DHT22;33547;49.044;1.156;2022-08-19T03:36:23;22.10;58.50
47791;DHT22;33547;49.044;1.156;2022-08-19T03:38:53;22.10;58.40
47791;DHT22;33547;49.044;1.156;2022-08-19T03:41:26;22.10;58.50
47791;DHT22;33547;49.044;1.156;2022-08-19T03:43:54;22.10;58.40
47791;DHT22;33547;49.044;1.156;2022-08-19T03:46:28;22.10;58.40
47791;DHT22;33547;49.044;1.156;2022-08-19T03:48:56;22.10;58.40
47791;DHT22;33547;49.044;1.156;2022-08-19T03:51:31;22.10;58.30
47791;DHT22;33547;49.044;1.156;2022-08-19T03:54:01;22.10;58.30
47791;DHT22;33547;49.044;1.156;2022-08-19T03:56:29;22.10;58.20
47791;DHT22;33547;49.044;1.156;2022-08-19T03:58:56;22.10;58.30
47791;DHT22;33547;49.044;1.156;2022-08-19T04:01:26;22.20;58.40
47791;DHT22;33547;49.044;1.156;2022-08-19T04:03:57;22.20;58.30
47791;DHT22;33547;49.044;1.156;2022-08-19T04:06:26;22.20;58.30
47791;DHT22;33547;49.044;1.156;2022-08-19T04:09:00;22.20;58.20
47791;DHT22;33547;49.044;1.156;2022-08-19T04:11:43;22.20;58.30
47791;DHT22;33547;49.044;1.156;2022-08-19T04:14:13;22.20;58.20
47791;DHT22;33547;49.044;1.156;2022-08-19T04:16:41;22.20;58.20
47791;DHT22;33547;49.044;1.156;2022-08-19T04:19:09;22.20;58.10
47791;DHT22;33547;49.044;1.156;2022-08-19T04:21:35;22.20;58.10
47791;DHT22;33547;49.044;1.156;2022-08-19T04:24:02;22.20;58.10
47791;DHT22;33547;49.044;1.156;2022-08-19T04:26:31;22.20;58.10
47791;DHT22;33547;49.044;1.156;2022-08-19T04:29:01;22.20;58.10
47791;DHT22;33547;49.044;1.156;2022-08-19T04:31:32;22.30;58.10
47791;DHT22;33547;49.044;1.156;2022-08-19T04:34:03;22.20;58.00
47791;DHT22;33547;49.044;1.156;2022-08-19T04:36:34;22.30;58.00
47791;DHT22;33547;49.044;1.156;2022-08-19T04:39:08;22.30;58.00
47791;DHT22;33547;49.044;1.156;2022-08-19T04:41:35;22.30;58.00
47791;DHT22;33547;49.044;1.156;2022-08-19T04:44:20;22.30;58.00
47791;DHT22;33547;49.044;1.156;2022-08-19T04:46:48;22.30;58.00
47791;DHT22;33547;49.044;1.156;2022-08-19T04:49:15;22.30;57.90
47791;DHT22;33547;49.044;1.156;2022-08-19T04:51:44;22.30;57.90
47791;DHT22;33547;49.044;1.156;2022-08-19T04:54:12;22.30;58.00
47791;DHT22;33547;49.044;1.156;2022-08-19T04:56:39;22.30;59.70
47791;DHT22;33547;49.044;1.156;2022-08-19T04:59:05;22.40;60.60
47791;DHT22;33547;49.044;1.156;2022-08-19T05:01:33;22.40;60.90
47791;DHT22;33547;49.044;1.156;2022-08-19T05:04:00;22.50;61.10
47791;DHT22;33547;49.044;1.156;2022-08-19T05:06:27;22.50;61.20
47791;DHT22;33547;49.044;1.156;2022-08-19T05:08:54;22.50;61.20
47791;DHT22;33547;49.044;1.156;2022-08-19T05:11:25;22.50;61.30
47791;DHT22;33547;49.044;1.156;2022-08-19T05:13:53;22.50;61.50
47791;DHT22;33547;49.044;1.156;2022-08-19T05:16:21;22.60;61.80
47791;DHT22;33547;49.044;1.156;2022-08-19T05:18:48;22.60;61.70
47791;DHT22;33547;49.044;1.156;2022-08-19T05:21:33;22.60;61.60
47791;DHT22;33547;49.044;1.156;2022-08-19T05:24:19;22.60;61.60
47791;DHT22;33547;49.044;1.156;2022-08-19T05:26:49;22.70;61.60
47791;DHT22;33547;49.044;1.156;2022-08-19T05:29:19;22.70;61.50
47791;DHT22;33547;49.044;1.156;2022-08-19T05:31:47;22.70;61.40
47791;DHT22;33547;49.044;1.156;2022-08-19T05:34:15;22.70;61.30
47791;DHT22;33547;49.044;1.156;2022-08-19T05:36:44;22.70;61.20
47791;DHT22;33547;49.044;1.156;2022-08-19T05:39:16;22.80;61.20
47791;DHT22;33547;49.044;1.156;2022-08-19T05:41:47;22.80;61.00
47791;DHT22;33547;49.044;1.156;2022-08-19T05:44:16;22.80;61.00
47791;DHT22;33547;49.044;1.156;2022-08-19T05:46:45;22.80;60.90
47791;DHT22;33547;49.044;1.156;2022-08-19T05:49:15;23.00;60.80
47791;DHT22;33547;49.044;1.156;2022-08-19T05:51:42;23.00;60.70
47791;DHT22;33547;49.044;1.156;2022-08-19T05:54:08;23.00;60.60
47791;DHT22;33547;49.044;1.156;2022-08-19T05:56:36;23.00;60.50
47791;DHT22;33547;49.044;1.156;2022-08-19T05:59:04;23.00;60.70
47791;DHT22;33547;49.044;1.156;2022-08-19T06:01:34;23.00;60.60
47791;DHT22;33547;49.044;1.156;2022-08-19T06:04:01;23.00;60.50
47791;DHT22;33547;49.044;1.156;2022-08-19T06:06:27;23.00;60.70
47791;DHT22;33547;49.044;1.156;2022-08-19T06:08:53;23.00;60.70
47791;DHT22;33547;49.044;1.156;2022-08-19T06:11:21;23.10;60.70
47791;DHT22;33547;49.044;1.156;2022-08-19T06:13:50;23.10;60.70
47791;DHT22;33547;49.044;1.156;2022-08-19T06:16:21;23.10;60.60
47791;DHT22;33547;49.044;1.156;2022-08-19T06:18:50;23.10;60.20
47791;DHT22;33547;49.044;1.156;2022-08-19T06:21:23;23.20;60.50
47791;DHT22;33547;49.044;1.156;2022-08-19T06:23:51;23.20;60.80
47791;DHT22;33547;49.044;1.156;2022-08-19T06:26:19;23.20;60.70
47791;DHT22;33547;49.044;1.156;2022-08-19T06:28:47;23.20;61.00
47791;DHT22;33547;49.044;1.156;2022-08-19T06:31:21;23.30;61.00
47791;DHT22;33547;49.044;1.156;2022-08-19T06:33:51;23.30;63.40
47791;DHT22;33547;49.044;1.156;2022-08-19T06:38:50;23.30;64.00
47791;DHT22;33547;49.044;1.156;2022-08-19T06:41:16;23.40;63.70
47791;DHT22;33547;49.044;1.156;2022-08-19T06:43:42;23.40;63.80
47791;DHT22;33547;49.044;1.156;2022-08-19T06:46:13;23.40;63.70
47791;DHT22;33547;49.044;1.156;2022-08-19T06:48:41;23.40;63.60
47791;DHT22;33547;49.044;1.156;2022-08-19T06:51:07;23.50;63.70
47791;DHT22;33547;49.044;1.156;2022-08-19T06:53:33;23.50;63.60
47791;DHT22;33547;49.044;1.156;2022-08-19T06:55:59;23.50;63.60
47791;DHT22;33547;49.044;1.156;2022-08-19T06:58:30;23.50;63.80
47791;DHT22;33547;49.044;1.156;2022-08-19T07:01:03;23.60;63.60
47791;DHT22;33547;49.044;1.156;2022-08-19T07:03:32;23.60;63.70
47791;DHT22;33547;49.044;1.156;2022-08-19T07:06:07;23.60;63.40
47791;DHT22;33547;49.044;1.156;2022-08-19T07:08:35;23.70;63.50
47791;DHT22;33547;49.044;1.156;2022-08-19T07:11:05;23.70;63.50
47791;DHT22;33547;49.044;1.156;2022-08-19T07:13:35;23.80;63.40
47791;DHT22;33547;49.044;1.156;2022-08-19T07:16:04;23.90;63.30
47791;DHT22;33547;49.044;1.156;2022-08-19T07:18:30;24.00;63.00
47791;DHT22;33547;49.044;1.156;2022-08-19T07:21:05;24.10;62.60
47791;DHT22;33547;49.044;1.156;2022-08-19T07:23:35;24.20;62.50
47791;DHT22;33547;49.044;1.156;2022-08-19T07:26:22;24.30;62.00
47791;DHT22;33547;49.044;1.156;2022-08-19T07:28:50;24.40;62.40
47791;DHT22;33547;49.044;1.156;2022-08-19T07:31:20;24.50;62.10
47791;DHT22;33547;49.044;1.156;2022-08-19T07:33:49;24.70;62.30
47791;DHT22;33547;49.044;1.156;2022-08-19T07:36:18;24.80;62.40
47791;DHT22;33547;49.044;1.156;2022-08-19T07:38:48;24.90;62.20
47791;DHT22;33547;49.044;1.156;2022-08-19T07:41:20;25.00;62.20
47791;DHT22;33547;49.044;1.156;2022-08-19T07:43:48;25.20;61.70
47791;DHT22;33547;49.044;1.156;2022-08-19T07:46:15;25.40;60.80
47791;DHT22;33547;49.044;1.156;2022-08-19T07:48:43;25.70;59.60
47791;DHT22;33547;49.044;1.156;2022-08-19T07:51:13;25.90;59.00
47791;DHT22;33547;49.044;1.156;2022-08-19T07:53:41;26.40;57.70
47791;DHT22;33547;49.044;1.156;2022-08-19T07:56:08;26.90;57.00
47791;DHT22;33547;49.044;1.156;2022-08-19T07:58:37;27.40;55.40
47791;DHT22;33547;49.044;1.156;2022-08-19T08:01:06;27.70;54.50
47791;DHT22;33547;49.044;1.156;2022-08-19T08:03:33;27.90;54.00
47791;DHT22;33547;49.044;1.156;2022-08-19T08:06:17;28.30;53.60
47791;DHT22;33547;49.044;1.156;2022-08-19T08:09:05;28.80;52.40
47791;DHT22;33547;49.044;1.156;2022-08-19T08:11:46;28.90;51.50
47791;DHT22;33547;49.044;1.156;2022-08-19T08:14:24;29.10;51.20
47791;DHT22;33547;49.044;1.156;2022-08-19T08:16:56;29.10;50.90
47791;DHT22;33547;49.044;1.156;2022-08-19T08:19:24;29.40;49.80
47791;DHT22;33547;49.044;1.156;2022-08-19T08:21:51;29.50;48.70
47791;DHT22;33547;49.044;1.156;2022-08-19T08:24:19;29.60;48.40
47791;DHT22;33547;49.044;1.156;2022-08-19T08:26:45;29.70;48.70
47791;DHT22;33547;49.044;1.156;2022-08-19T08:29:12;29.50;49.00
47791;DHT22;33547;49.044;1.156;2022-08-19T08:31:42;29.30;49.60
47791;DHT22;33547;49.044;1.156;2022-08-19T08:34:10;29.10;49.60
47791;DHT22;33547;49.044;1.156;2022-08-19T08:36:39;29.00;49.80
47791;DHT22;33547;49.044;1.156;2022-08-19T08:39:11;28.90;50.20
47791;DHT22;33547;49.044;1.156;2022-08-19T08:47:11;29.00;49.90
47791;DHT22;33547;49.044;1.156;2022-08-19T08:49:41;29.10;49.80
47791;DHT22;33547;49.044;1.156;2022-08-19T08:52:20;29.10;49.80
47791;DHT22;33547;49.044;1.156;2022-08-19T08:54:49;29.10;49.80
47791;DHT22;33547;49.044;1.156;2022-08-19T08:57:49;29.00;50.80
47791;DHT22;33547;49.044;1.156;2022-08-19T09:00:36;29.00;49.60
47791;DHT22;33547;49.044;1.156;2022-08-19T09:03:13;29.20;48.90
47791;DHT22;33547;49.044;1.156;2022-08-19T09:17:11;29.20;48.30
47791;DHT22;33547;49.044;1.156;2022-08-19T09:22:39;29.00;49.20
47791;DHT22;33547;49.044;1.156;2022-08-19T09:25:11;29.00;48.90
47791;DHT22;33547;49.044;1.156;2022-08-19T09:27:40;29.00;49.00
47791;DHT22;33547;49.044;1.156;2022-08-19T09:30:08;29.20;48.90
47791;DHT22;33547;49.044;1.156;2022-08-19T09:32:37;29.40;49.00
47791;DHT22;33547;49.044;1.156;2022-08-19T09:35:04;29.40;48.30
47791;DHT22;33547;49.044;1.156;2022-08-19T09:37:31;29.60;48.40
47791;DHT22;33547;49.044;1.156;2022-08-19T09:39:57;29.60;48.00
47791;DHT22;33547;49.044;1.156;2022-08-19T09:42:23;29.60;47.80
47791;DHT22;33547;49.044;1.156;2022-08-19T09:44:49;29.50;48.10
47791;DHT22;33547;49.044;1.156;2022-08-19T09:47:14;29.20;48.30
47791;DHT22;33547;49.044;1.156;2022-08-19T09:49:41;29.30;49.00
47791;DHT22;33547;49.044;1.156;2022-08-19T09:52:10;29.00;48.80
47791;DHT22;33547;49.044;1.156;2022-08-19T09:54:38;29.00;49.20
47791;DHT22;33547;49.044;1.156;2022-08-19T09:57:04;29.10;49.00
47791;DHT22;33547;49.044;1.156;2022-08-19T09:59:31;29.20;48.70
47791;DHT22;33547;49.044;1.156;2022-08-19T10:01:56;29.20;48.70
47791;DHT22;33547;49.044;1.156;2022-08-19T10:04:23;29.20;48.30
47791;DHT22;33547;49.044;1.156;2022-08-19T10:07:08;29.40;48.00
47791;DHT22;33547;49.044;1.156;2022-08-19T10:09:34;29.70;48.10
47791;DHT22;33547;49.044;1.156;2022-08-19T10:12:01;29.90;47.50
47791;DHT22;33547;49.044;1.156;2022-08-19T10:14:29;29.90;47.50
47791;DHT22;33547;49.044;1.156;2022-08-19T10:16:55;29.90;47.20
47791;DHT22;33547;49.044;1.156;2022-08-19T10:19:21;29.80;47.40
47791;DHT22;33547;49.044;1.156;2022-08-19T10:21:47;29.60;47.70
47791;DHT22;33547;49.044;1.156;2022-08-19T10:24:13;29.50;48.00
47791;DHT22;33547;49.044;1.156;2022-08-19T10:26:40;29.40;48.00
47791;DHT22;33547;49.044;1.156;2022-08-19T10:29:13;29.50;48.50
47791;DHT22;33547;49.044;1.156;2022-08-19T10:31:41;29.60;48.40
47791;DHT22;33547;49.044;1.156;2022-08-19T10:34:08;29.60;48.40
47791;DHT22;33547;49.044;1.156;2022-08-19T10:36:36;29.60;48.10
47791;DHT22;33547;49.044;1.156;2022-08-19T10:39:07;29.50;48.40
47791;DHT22;33547;49.044;1.156;2022-08-19T10:41:37;29.60;48.40
47791;DHT22;33547;49.044;1.156;2022-08-19T10:44:07;29.50;48.70
47791;DHT22;33547;49.044;1.156;2022-08-19T10:46:42;29.50;48.70
47791;DHT22;33547;49.044;1.156;2022-08-19T10:49:11;29.40;48.70
47791;DHT22;33547;49.044;1.156;2022-08-19T10:51:38;29.20;49.00
47791;DHT22;33547;49.044;1.156;2022-08-19T10:54:23;29.20;49.20
47791;DHT22;33547;49.044;1.156;2022-08-19T10:57:09;29.10;49.50
47791;DHT22;33547;49.044;1.156;2022-08-19T10:59:35;29.00;49.50
47791;DHT22;33547;49.044;1.156;2022-08-19T11:02:05;28.90;49.50
47791;DHT22;33547;49.044;1.156;2022-08-19T11:04:39;29.00;49.70
47791;DHT22;33547;49.044;1.156;2022-08-19T11:07:07;29.10;49.60
47791;DHT22;33547;49.044;1.156;2022-08-19T11:09:39;29.20;49.40
47791;DHT22;33547;49.044;1.156;2022-08-19T11:12:06;29.40;48.90
47791;DHT22;33547;49.044;1.156;2022-08-19T11:14:34;29.50;48.80
47791;DHT22;33547;49.044;1.156;2022-08-19T11:17:01;29.70;48.40
47791;DHT22;33547;49.044;1.156;2022-08-19T11:19:27;29.70;48.10
47791;DHT22;33547;49.044;1.156;2022-08-19T11:21:53;29.80;48.20
47791;DHT22;33547;49.044;1.156;2022-08-19T11:24:25;29.90;48.20
47791;DHT22;33547;49.044;1.156;2022-08-19T11:26:54;29.90;48.10
47791;DHT22;33547;49.044;1.156;2022-08-19T11:29:25;29.90;48.00
47791;DHT22;33547;49.044;1.156;2022-08-19T11:31:53;30.00;47.70
47791;DHT22;33547;49.044;1.156;2022-08-19T11:34:25;30.20;47.70
47791;DHT22;33547;49.044;1.156;2022-08-19T11:36:55;30.50;47.10
47791;DHT22;33547;49.044;1.156;2022-08-19T11:39:26;30.80;46.70
47791;DHT22;33547;49.044;1.156;2022-08-19T11:41:53;31.00;46.30
47791;DHT22;33547;49.044;1.156;2022-08-19T11:44:19;31.10;45.60
47791;DHT22;33547;49.044;1.156;2022-08-19T11:46:45;31.30;45.20
47791;DHT22;33547;49.044;1.156;2022-08-19T11:49:16;31.40;45.00
47791;DHT22;33547;49.044;1.156;2022-08-19T11:51:44;31.50;45.00
47791;DHT22;33547;49.044;1.156;2022-08-19T11:54:12;31.50;44.80
47791;DHT22;33547;49.044;1.156;2022-08-19T11:56:40;31.60;44.70
47791;DHT22;33547;49.044;1.156;2022-08-19T11:59:06;31.90;44.20
47791;DHT22;33547;49.044;1.156;2022-08-19T12:01:33;32.40;43.60
47791;DHT22;33547;49.044;1.156;2022-08-19T12:04:00;33.30;42.80
47791;DHT22;33547;49.044;1.156;2022-08-19T12:06:31;34.40;40.80
47791;DHT22;33547;49.044;1.156;2022-08-19T12:09:04;34.30;40.60
47791;DHT22;33547;49.044;1.156;2022-08-19T12:11:31;34.30;40.50
47791;DHT22;33547;49.044;1.156;2022-08-19T12:13:57;33.90;40.80
47791;DHT22;33547;49.044;1.156;2022-08-19T12:16:26;33.60;41.20
47791;DHT22;33547;49.044;1.156;2022-08-19T12:18:54;33.20;41.70
47791;DHT22;33547;49.044;1.156;2022-08-19T12:21:23;32.90;42.20
47791;DHT22;33547;49.044;1.156;2022-08-19T12:23:55;32.90;42.40
47791;DHT22;33547;49.044;1.156;2022-08-19T12:26:23;33.00;42.20
47791;DHT22;33547;49.044;1.156;2022-08-19T12:28:50;33.20;41.90
47791;DHT22;33547;49.044;1.156;2022-08-19T12:31:16;33.00;42.20
47791;DHT22;33547;49.044;1.156;2022-08-19T12:33:42;32.60;42.70
47791;DHT22;33547;49.044;1.156;2022-08-19T12:36:11;32.20;43.30
47791;DHT22;33547;49.044;1.156;2022-08-19T12:38:39;31.80;44.00
47791;DHT22;33547;49.044;1.156;2022-08-19T12:41:06;31.60;45.10
47791;DHT22;33547;49.044;1.156;2022-08-19T12:43:34;31.60;44.70
47791;DHT22;33547;49.044;1.156;2022-08-19T12:46:07;31.60;44.70
47791;DHT22;33547;49.044;1.156;2022-08-19T12:48:34;31.70;44.60
47791;DHT22;33547;49.044;1.156;2022-08-19T12:51:05;31.70;44.70
47791;DHT22;33547;49.044;1.156;2022-08-19T12:53:35;31.80;44.60
47791;DHT22;33547;49.044;1.156;2022-08-19T12:56:02;31.90;44.80
47791;DHT22;33547;49.044;1.156;2022-08-19T12:58:29;31.80;44.80
47791;DHT22;33547;49.044;1.156;2022-08-19T13:00:55;31.70;45.10
47791;DHT22;33547;49.044;1.156;2022-08-19T13:03:21;31.60;45.10
47791;DHT22;33547;49.044;1.156;2022-08-19T13:05:54;31.60;45.30
47791;DHT22;33547;49.044;1.156;2022-08-19T13:08:20;31.50;45.60
47791;DHT22;33547;49.044;1.156;2022-08-19T13:10:46;31.40;45.50
47791;DHT22;33547;49.044;1.156;2022-08-19T13:13:12;31.30;45.70
47791;DHT22;33547;49.044;1.156;2022-08-19T13:15:40;31.40;45.70
47791;DHT22;33547;49.044;1.156;2022-08-19T13:18:09;31.40;45.70
47791;DHT22;33547;49.044;1.156;2022-08-19T13:20:36;31.40;45.70
47791;DHT22;33547;49.044;1.156;2022-08-19T13:23:03;31.50;45.60
47791;DHT22;33547;49.044;1.156;2022-08-19T13:25:30;31.80;44.90
47791;DHT22;33547;49.044;1.156;2022-08-19T13:27:56;31.80;44.80
47791;DHT22;33547;49.044;1.156;2022-08-19T13:30:22;31.60;45.10
47791;DHT22;33547;49.044;1.156;2022-08-19T13:33:08;31.60;45.20
47791;DHT22;33547;49.044;1.156;2022-08-19T13:35:39;31.70;44.90
47791;DHT22;33547;49.044;1.156;2022-08-19T13:38:08;31.90;44.80
47791;DHT22;33547;49.044;1.156;2022-08-19T13:40:35;32.00;44.60
47791;DHT22;33547;49.044;1.156;2022-08-19T13:43:03;32.00;44.50
47791;DHT22;33547;49.044;1.156;2022-08-19T13:45:31;32.00;44.40
47791;DHT22;33547;49.044;1.156;2022-08-19T13:48:00;32.10;44.30
47791;DHT22;33547;49.044;1.156;2022-08-19T13:50:30;32.10;44.20
47791;DHT22;33547;49.044;1.156;2022-08-19T13:52:57;31.80;44.50
47791;DHT22;33547;49.044;1.156;2022-08-19T13:55:24;31.50;44.90
47791;DHT22;33547;49.044;1.156;2022-08-19T13:57:52;31.40;45.20
47791;DHT22;33547;49.044;1.156;2022-08-19T14:00:19;31.50;45.00
47791;DHT22;33547;49.044;1.156;2022-08-19T14:02:47;31.60;44.70
47791;DHT22;33547;49.044;1.156;2022-08-19T14:05:17;31.50;44.90
47791;DHT22;33547;49.044;1.156;2022-08-19T14:07:45;31.30;45.20
47791;DHT22;33547;49.044;1.156;2022-08-19T14:10:12;31.20;45.50
47791;DHT22;33547;49.044;1.156;2022-08-19T14:12:39;31.00;45.80
47791;DHT22;33547;49.044;1.156;2022-08-19T14:15:08;30.90;46.00
47791;DHT22;33547;49.044;1.156;2022-08-19T14:17:41;30.80;46.10
47791;DHT22;33547;49.044;1.156;2022-08-19T14:20:08;31.00;45.90
47791;DHT22;33547;49.044;1.156;2022-08-19T14:22:37;31.30;45.50
47791;DHT22;33547;49.044;1.156;2022-08-19T14:25:07;31.50;45.10
47791;DHT22;33547;49.044;1.156;2022-08-19T14:27:36;31.50;45.10
47791;DHT22;33547;49.044;1.156;2022-08-19T14:30:07;31.50;45.10
47791;DHT22;33547;49.044;1.156;2022-08-19T14:32:34;31.40;45.10
47791;DHT22;33547;49.044;1.156;2022-08-19T14:35:01;31.30;45.30
47791;DHT22;33547;49.044;1.156;2022-08-19T14:37:27;31.20;45.50
47791;DHT22;33547;49.044;1.156;2022-08-19T14:39:54;31.10;45.60
47791;DHT22;33547;49.044;1.156;2022-08-19T14:42:19;31.10;45.90
47791;DHT22;33547;49.044;1.156;2022-08-19T14:44:45;31.00;45.90
47791;DHT22;33547;49.044;1.156;2022-08-19T14:47:11;31.00;46.10
47791;DHT22;33547;49.044;1.156;2022-08-19T14:49:37;31.00;45.90
47791;DHT22;33547;49.044;1.156;2022-08-19T14:52:05;31.10;45.90
47791;DHT22;33547;49.044;1.156;2022-08-19T14:54:31;31.30;45.80
47791;DHT22;33547;49.044;1.156;2022-08-19T14:56:58;31.90;44.50
47791;DHT22;33547;49.044;1.156;2022-08-19T14:59:24;32.20;44.00
47791;DHT22;33547;49.044;1.156;2022-08-19T15:01:50;32.20;44.00
47791;DHT22;33547;49.044;1.156;2022-08-19T15:04:15;32.20;44.10
47791;DHT22;33547;49.044;1.156;2022-08-19T15:06:41;32.10;44.10
47791;DHT22;33547;49.044;1.156;2022-08-19T15:09:08;32.10;44.20
47791;DHT22;33547;49.044;1.156;2022-08-19T15:11:35;31.90;44.40
47791;DHT22;33547;49.044;1.156;2022-08-19T15:14:02;31.70;44.70
47791;DHT22;33547;49.044;1.156;2022-08-19T15:16:30;31.60;45.00
47791;DHT22;33547;49.044;1.156;2022-08-19T15:18:58;31.40;45.20
47791;DHT22;33547;49.044;1.156;2022-08-19T15:21:25;31.30;45.60
47791;DHT22;33547;49.044;1.156;2022-08-19T15:23:52;31.10;45.80
47791;DHT22;33547;49.044;1.156;2022-08-19T15:26:19;31.00;46.00
47791;DHT22;33547;49.044;1.156;2022-08-19T15:28:45;30.80;46.40
47791;DHT22;33547;49.044;1.156;2022-08-19T15:31:12;30.70;46.70
47791;DHT22;33547;49.044;1.156;2022-08-19T15:33:43;30.50;46.90
47791;DHT22;33547;49.044;1.156;2022-08-19T15:36:10;30.30;47.30
47791;DHT22;33547;49.044;1.156;2022-08-19T15:38:37;30.10;47.70
47791;DHT22;33547;49.044;1.156;2022-08-19T15:41:04;30.00;48.00
47791;DHT22;33547;49.044;1.156;2022-08-19T15:44:10;29.80;48.20
47791;DHT22;33547;49.044;1.156;2022-08-19T15:46:40;29.70;48.70
47791;DHT22;33547;49.044;1.156;2022-08-19T15:49:08;29.50;48.90
47791;DHT22;33547;49.044;1.156;2022-08-19T15:51:37;29.40;49.20
47791;DHT22;33547;49.044;1.156;2022-08-19T15:54:06;29.40;49.40
47791;DHT22;33547;49.044;1.156;2022-08-19T15:56:33;29.20;49.90
47791;DHT22;33547;49.044;1.156;2022-08-19T15:59:18;29.10;50.20
47791;DHT22;33547;49.044;1.156;2022-08-19T16:02:03;29.00;50.40
47791;DHT22;33547;49.044;1.156;2022-08-19T16:04:47;28.90;51.10
47791;DHT22;33547;49.044;1.156;2022-08-19T16:07:31;28.90;52.10